Dronten, Netherlands
Current Conditions -  °F | °C
As of 2:25 AM on Wednesday 22 Oct 2014 (Local Time) from EHDL Reporting Station
Broken Clouds Broken Clouds  
Wind Chill: 41°   Ceiling: 4300
Heat Index: 46°   Visibility: 6mi
Dew Point: 43°   Wind: 10mph
Humidity: 87%   Direction: 280°W
Pressure: 29.83"   Gusts: NA
Location:  52.53°N, 5.72°E
Report Text: EHDL 220025Z AUTO 28009KT 9999 FEW033 SCT038 BKN043 08/06 Q1010 BLU
Loading
Personal Weather Stations






























Interactive Weather Map
Tropical Storm Tracking
New forecast layout! Learn more

10-Day Weather Forecast

Advertisements
Track Severe Weather on mobile